createdAt,value
2019-06-07T00:00:52.792Z,3.17
2019-06-07T00:03:28.978Z,2.83
2019-06-07T00:05:46.901Z,2.87
2019-06-07T00:08:22.537Z,3.00
2019-06-07T00:10:41.432Z,3.00
2019-06-07T00:13:07.477Z,2.77
2019-06-07T00:15:33.560Z,3.73
2019-06-07T00:17:59.609Z,2.80
2019-06-07T00:20:25.972Z,2.60
2019-06-07T00:22:52.324Z,3.37
2019-06-07T00:25:24.134Z,3.40
2019-06-07T00:27:47.003Z,3.20
2019-06-07T00:30:42.539Z,3.37
2019-06-07T00:32:43.967Z,3.43
2019-06-07T00:35:14.729Z,3.47
2019-06-07T00:37:40.012Z,3.60
2019-06-07T00:40:20.932Z,3.47
2019-06-07T00:42:36.604Z,3.53
2019-06-07T00:45:08.044Z,3.50
2019-06-07T00:47:34.748Z,3.50
2019-06-07T00:50:01.198Z,3.37
2019-06-07T00:53:13.875Z,3.43
2019-06-07T00:54:55.694Z,3.43
2019-06-07T00:57:24.147Z,3.53
2019-06-07T00:59:49.727Z,3.97
2019-06-07T01:02:16.663Z,4.03
2019-06-07T01:04:44.085Z,3.87
2019-06-07T01:07:10.540Z,3.40
2019-06-07T01:09:36.996Z,3.73
2019-06-07T01:12:05.292Z,3.27
2019-06-07T01:14:31.647Z,3.93
2019-06-07T01:17:20.160Z,3.67
2019-06-07T01:19:27.765Z,4.30
2019-06-07T01:21:54.103Z,4.30
2019-06-07T01:24:24.431Z,3.97
2019-06-07T01:26:48.510Z,5.23
2019-06-07T01:29:17.718Z,4.20
2019-06-07T01:31:44.223Z,4.10
2019-06-07T01:34:10.892Z,4.93
2019-06-07T01:36:37.320Z,4.30
2019-06-07T01:39:06.721Z,4.20
2019-06-07T01:41:32.772Z,4.27
2019-06-07T01:43:58.853Z,3.90
2019-06-07T01:46:26.707Z,4.47
2019-06-07T01:48:52.904Z,4.23
2019-06-07T01:51:20.066Z,4.47
2019-06-07T01:53:47.673Z,4.70
2019-06-07T01:56:13.764Z,4.80
2019-06-07T01:58:39.860Z,5.10
2019-06-07T02:01:06.169Z,3.90
2019-06-07T02:03:33.495Z,4.80
2019-06-07T02:06:01.178Z,4.70
2019-06-07T02:08:33.563Z,4.87
2019-06-07T02:10:55.568Z,5.10
2019-06-07T02:13:23.592Z,4.37
2019-06-07T02:15:49.864Z,4.97
2019-06-07T02:18:16.203Z,4.73
2019-06-07T02:20:42.289Z,5.80
2019-06-07T02:23:08.649Z,4.57
2019-06-07T02:25:42.961Z,5.17
2019-06-07T02:28:26.449Z,4.83
2019-06-07T02:30:44.215Z,4.30
2019-06-07T02:33:00.089Z,4.70
2019-06-07T02:35:33.017Z,5.40
2019-06-07T02:37:54.498Z,5.13
2019-06-07T02:40:21.936Z,5.10
2019-06-07T02:42:48.815Z,4.50
2019-06-07T02:45:15.162Z,5.23
2019-06-07T02:47:42.519Z,5.30
2019-06-07T02:50:11.131Z,5.17
2019-06-07T02:52:40.829Z,4.73
2019-06-07T02:55:09.374Z,5.10
2019-06-07T02:57:40.410Z,5.37
2019-06-07T03:00:38.991Z,4.97
2019-06-07T03:02:40.800Z,4.30
2019-06-07T03:05:05.440Z,4.90
2019-06-07T03:07:35.011Z,5.40
2019-06-07T03:10:01.039Z,5.10
2019-06-07T03:12:32.307Z,4.70
2019-06-07T03:15:00.203Z,5.33
2019-06-07T03:17:42.592Z,5.57
2019-06-07T03:20:11.073Z,5.40
2019-06-07T03:22:41.674Z,6.20
2019-06-07T03:25:10.626Z,4.87
2019-06-07T03:27:48.287Z,4.77
2019-06-07T03:30:36.185Z,5.20
2019-06-07T03:32:46.492Z,5.00
2019-06-07T03:35:06.868Z,5.67
2019-06-07T03:37:37.639Z,5.77
2019-06-07T03:40:00.920Z,4.80
2019-06-07T03:42:27.294Z,5.83
2019-06-07T03:44:54.027Z,5.23
2019-06-07T03:47:20.453Z,5.00
2019-06-07T03:49:46.640Z,5.20
2019-06-07T03:52:13.036Z,6.03
2019-06-07T03:54:39.911Z,5.17
2019-06-07T03:57:06.273Z,4.67
2019-06-07T03:59:38.587Z,5.13
2019-06-07T04:02:00.901Z,5.27
2019-06-07T04:04:27.402Z,4.60
2019-06-07T04:06:54.307Z,5.60
2019-06-07T04:09:20.760Z,5.07
2019-06-07T04:11:47.140Z,5.63
2019-06-07T04:14:13.879Z,5.63
2019-06-07T04:16:43.645Z,4.63
2019-06-07T04:19:07.886Z,5.27
2019-06-07T04:21:35.151Z,4.67
2019-06-07T04:24:02.272Z,5.70
2019-06-07T04:26:31.440Z,4.70
2019-06-07T04:31:25.152Z,5.43
2019-06-07T04:33:51.240Z,5.00
2019-06-07T04:36:37.860Z,4.83
2019-06-07T04:38:50.594Z,4.80
2019-06-07T04:41:20.693Z,3.80
2019-06-07T04:43:48.284Z,4.83
2019-06-07T04:46:16.142Z,5.90
2019-06-07T04:48:45.848Z,5.40
2019-06-07T04:51:13.310Z,4.30
2019-06-07T04:53:43.056Z,4.83
2019-06-07T04:56:07.389Z,4.50
2019-06-07T04:58:33.510Z,4.37
2019-06-07T05:01:03.392Z,4.73
2019-06-07T05:03:27.636Z,5.23
2019-06-07T05:05:53.681Z,4.57
2019-06-07T05:08:28.221Z,4.30
2019-06-07T05:10:48.061Z,5.07
2019-06-07T05:13:14.368Z,4.73
2019-06-07T05:15:42.221Z,4.10
2019-06-07T05:18:08.665Z,4.53
2019-06-07T05:20:36.104Z,4.87
2019-06-07T05:23:02.912Z,4.40
2019-06-07T05:25:31.854Z,5.83
2019-06-07T05:27:57.292Z,5.90
2019-06-07T05:31:02.021Z,5.30
2019-06-07T05:33:03.108Z,5.37
2019-06-07T05:35:30.669Z,6.10
2019-06-07T05:37:57.144Z,6.13
2019-06-07T05:40:34.336Z,6.13
2019-06-07T05:43:01.476Z,5.47
2019-06-07T05:45:32.361Z,5.93
2019-06-07T05:47:59.739Z,6.40
2019-06-07T05:50:39.248Z,7.13
2019-06-07T05:52:54.001Z,6.40
2019-06-07T05:55:20.378Z,7.50
2019-06-07T05:57:50.994Z,7.37
2019-06-07T06:00:14.740Z,6.90
2019-06-07T06:03:03.313Z,6.77
2019-06-07T06:05:09.880Z,6.03
2019-06-07T06:07:41.193Z,6.17
2019-06-07T06:10:06.682Z,6.10
2019-06-07T06:12:38.301Z,5.70
2019-06-07T06:15:01.469Z,5.77
2019-06-07T06:17:27.557Z,6.23
2019-06-07T06:19:53.928Z,6.00
2019-06-07T06:22:20.659Z,6.13
2019-06-07T06:25:22.569Z,4.23
2019-06-07T06:27:55.638Z,6.00
2019-06-07T06:29:46.397Z,5.13
2019-06-07T06:32:41.015Z,5.00
2019-06-07T06:34:44.254Z,6.37
2019-06-07T06:37:08.873Z,5.27
2019-06-07T06:39:34.928Z,5.67
2019-06-07T06:42:03.814Z,5.10
2019-06-07T06:44:29.601Z,4.17
2019-06-07T06:46:58.076Z,5.33
2019-06-07T06:49:23.648Z,4.97
2019-06-07T06:51:52.899Z,4.20
2019-06-07T06:54:39.019Z,3.40
2019-06-07T06:56:46.988Z,4.30
2019-06-07T06:59:37.580Z,5.30
2019-06-07T07:01:42.532Z,4.73
2019-06-07T07:04:13.210Z,5.97
2019-06-07T07:06:41.552Z,4.53
2019-06-07T07:09:09.208Z,5.07
2019-06-07T07:11:52.315Z,4.27
2019-06-07T07:14:04.512Z,5.43
2019-06-07T07:16:30.604Z,4.80
2019-06-07T07:18:57.560Z,5.17
2019-06-07T07:21:23.920Z,5.10
2019-06-07T07:24:14.515Z,4.73
2019-06-07T07:26:18.020Z,5.60
2019-06-07T07:28:46.615Z,4.80
2019-06-07T07:31:12.687Z,4.50
2019-06-07T07:34:23.935Z,4.47
2019-06-07T07:36:23.296Z,3.83
2019-06-07T07:38:35.396Z,3.83
2019-06-07T07:41:13.843Z,4.00
2019-06-07T07:43:30.804Z,3.90
2019-06-07T07:46:02.407Z,3.80
2019-06-07T07:48:26.320Z,4.07
2019-06-07T07:50:56.924Z,3.87
2019-06-07T07:53:20.735Z,3.27
2019-06-07T07:55:52.829Z,2.90
2019-06-07T07:58:15.164Z,3.30
2019-06-07T08:00:53.207Z,3.90
2019-06-07T08:03:09.574Z,3.43
2019-06-07T08:05:43.043Z,3.60
2019-06-07T08:08:07.864Z,3.00
2019-06-07T08:10:33.087Z,3.70
2019-06-07T08:13:22.096Z,3.47
2019-06-07T08:15:59.535Z,3.37
2019-06-07T08:18:24.631Z,3.07
2019-06-07T08:21:08.667Z,3.17
2019-06-07T08:23:19.048Z,3.10
2019-06-07T08:25:45.096Z,3.00
2019-06-07T08:28:11.512Z,2.80
2019-06-07T08:30:58.381Z,2.80
2019-06-07T08:33:25.299Z,3.30
2019-06-07T08:38:24.971Z,3.23
2019-06-07T08:40:29.974Z,2.77
2019-06-07T08:43:15.097Z,3.37
2019-06-07T08:45:25.888Z,2.93
2019-06-07T08:47:58.241Z,2.90
2019-06-07T08:50:22.340Z,2.93
2019-06-07T08:52:48.384Z,2.57
2019-06-07T08:55:16.403Z,2.80
2019-06-07T08:57:42.876Z,2.90
2019-06-07T09:00:42.502Z,2.90
2019-06-07T09:02:38.516Z,3.00
2019-06-07T09:05:12.151Z,3.50
2019-06-07T09:07:34.828Z,2.93
2019-06-07T09:10:09.598Z,3.30
2019-06-07T09:12:30.708Z,3.17
2019-06-07T09:15:12.201Z,2.87
2019-06-07T09:17:25.488Z,2.93
2019-06-07T09:19:51.854Z,3.17
2019-06-07T09:22:18.531Z,3.40
2019-06-07T09:24:44.577Z,3.90
2019-06-07T09:27:12.028Z,3.27
2019-06-07T09:29:38.463Z,3.10
2019-06-07T09:32:10.635Z,3.40
2019-06-07T09:34:32.570Z,2.90
2019-06-07T09:37:04.277Z,3.17
2019-06-07T09:39:27.980Z,2.80
2019-06-07T09:41:54.721Z,2.90
2019-06-07T09:44:25.688Z,3.10
2019-06-07T09:47:07.979Z,3.23
2019-06-07T09:49:30.456Z,2.83
2019-06-07T09:51:45.112Z,3.00
2019-06-07T09:54:11.480Z,2.90
2019-06-07T09:56:39.280Z,2.90
2019-06-07T09:59:08.438Z,3.47
2019-06-07T10:01:35.128Z,2.90
2019-06-07T10:04:04.642Z,2.57
2019-06-07T10:06:29.818Z,2.47
2019-06-07T10:11:24.246Z,3.50
2019-06-07T10:13:50.743Z,3.10
2019-06-07T10:16:16.795Z,3.30
2019-06-07T10:18:42.906Z,3.00
2019-06-07T10:21:14.789Z,3.53
2019-06-07T10:23:37.576Z,3.03
2019-06-07T10:26:05.959Z,3.33
2019-06-07T10:28:32.482Z,3.30
2019-06-07T10:31:00.104Z,3.00
2019-06-07T10:33:26.764Z,2.97
2019-06-07T10:35:53.130Z,2.80
2019-06-07T10:38:19.585Z,2.97
2019-06-07T10:40:45.661Z,3.43
2019-06-07T10:43:14.388Z,3.20
2019-06-07T10:45:40.710Z,3.33
2019-06-07T10:48:07.624Z,3.20
2019-06-07T10:50:34.826Z,3.30
2019-06-07T10:53:02.365Z,2.80
2019-06-07T10:55:28.705Z,2.93
2019-06-07T10:57:55.052Z,3.13
2019-06-07T11:00:24.436Z,2.97
2019-06-07T11:02:54.819Z,3.47
2019-06-07T11:05:20.860Z,2.80
2019-06-07T11:07:47.337Z,2.80
2019-06-07T11:10:19.094Z,3.00
2019-06-07T11:12:42.552Z,3.07
2019-06-07T11:15:12.858Z,3.70
2019-06-07T11:17:40.643Z,3.47
2019-06-07T11:20:08.400Z,3.27
2019-06-07T11:22:34.916Z,3.20
2019-06-07T11:25:01.074Z,2.90
2019-06-07T11:27:27.971Z,3.30
2019-06-07T11:29:54.055Z,3.17
2019-06-07T11:32:20.477Z,3.60
2019-06-07T11:34:46.615Z,3.47
2019-06-07T11:37:13.800Z,3.60
2019-06-07T11:39:41.079Z,3.40
2019-06-07T11:42:07.945Z,3.23
2019-06-07T11:44:34.116Z,3.20
2019-06-07T11:47:00.184Z,3.13
2019-06-07T11:49:26.272Z,3.50
2019-06-07T11:51:52.600Z,3.50
2019-06-07T11:54:20.371Z,3.80
2019-06-07T11:56:46.780Z,3.60
2019-06-07T11:59:13.398Z,3.37
2019-06-07T12:01:40.481Z,5.20
2019-06-07T12:04:07.462Z,4.27
2019-06-07T12:06:34.280Z,4.30
2019-06-07T12:09:00.697Z,3.97
2019-06-07T12:11:26.745Z,4.40
2019-06-07T12:13:52.889Z,4.67
2019-06-07T12:16:19.475Z,4.63
2019-06-07T12:18:46.836Z,3.63
2019-06-07T12:21:13.637Z,4.00
2019-06-07T12:23:40.726Z,6.33
2019-06-07T12:26:07.057Z,3.67
2019-06-07T12:28:33.347Z,4.20
2019-06-07T12:31:00.024Z,3.63
2019-06-07T12:33:26.112Z,4.10
2019-06-07T12:35:52.165Z,3.67
2019-06-07T12:38:19.352Z,4.47
2019-06-07T12:40:57.236Z,3.60
2019-06-07T12:43:14.876Z,4.50
2019-06-07T12:45:45.244Z,3.87
2019-06-07T12:48:09.307Z,4.10
2019-06-07T12:50:43.947Z,4.60
2019-06-07T12:53:05.335Z,4.20
2019-06-07T12:55:31.431Z,3.27
2019-06-07T12:57:57.465Z,3.80
2019-06-07T13:00:25.053Z,4.63
2019-06-07T13:02:51.439Z,3.63
2019-06-07T13:05:19.821Z,4.13
2019-06-07T13:07:46.216Z,4.17
2019-06-07T13:10:14.017Z,3.80
2019-06-07T13:12:43.795Z,3.87
2019-06-07T13:15:10.145Z,4.27
2019-06-07T13:17:36.614Z,3.80
2019-06-07T13:20:05.754Z,4.53
2019-06-07T13:22:31.840Z,3.70
2019-06-07T13:24:59.550Z,4.00
2019-06-07T13:27:26.177Z,3.90
2019-06-07T13:29:52.288Z,4.30
2019-06-07T13:32:19.501Z,3.73
2019-06-07T13:34:46.615Z,4.00
2019-06-07T13:37:12.664Z,3.90
2019-06-07T13:39:38.864Z,3.60
2019-06-07T13:42:04.917Z,4.07
2019-06-07T13:44:31.077Z,4.40
2019-06-07T13:46:57.160Z,3.63
2019-06-07T13:49:23.738Z,3.90
2019-06-07T13:51:50.268Z,4.07
2019-06-07T13:54:16.948Z,4.07
2019-06-07T13:57:00.817Z,4.10
2019-06-07T13:59:10.981Z,3.90
2019-06-07T14:01:37.072Z,3.97
2019-06-07T14:04:03.602Z,3.90
2019-06-07T14:06:30.392Z,4.13
2019-06-07T14:08:56.492Z,3.97
2019-06-07T14:11:23.640Z,4.20
2019-06-07T14:13:50.360Z,3.97
2019-06-07T14:16:16.696Z,4.03
2019-06-07T14:18:43.442Z,3.57
2019-06-07T14:21:09.868Z,4.10
2019-06-07T14:23:48.405Z,3.97
2019-06-07T14:26:04.257Z,3.80
2019-06-07T14:28:32.807Z,3.50
2019-06-07T14:30:58.305Z,3.93
2019-06-07T14:33:26.921Z,3.73
2019-06-07T14:35:52.672Z,3.90
2019-06-07T14:38:19.096Z,4.23
2019-06-07T14:40:45.830Z,3.60
2019-06-07T14:43:12.248Z,4.20
2019-06-07T14:45:38.302Z,3.60
2019-06-07T14:48:04.387Z,4.17
2019-06-07T14:50:30.434Z,4.10
2019-06-07T14:52:56.525Z,3.40
2019-06-07T14:55:22.587Z,4.00
2019-06-07T14:57:48.776Z,3.73
2019-06-07T15:00:15.236Z,4.53
2019-06-07T15:02:41.677Z,4.40
2019-06-07T15:05:09.768Z,3.50
2019-06-07T15:07:35.909Z,3.80
2019-06-07T15:10:07.108Z,4.67
2019-06-07T15:12:33.326Z,4.27
2019-06-07T15:14:59.768Z,4.20
2019-06-07T15:17:26.436Z,3.67
2019-06-07T15:19:53.676Z,3.60
2019-06-07T15:22:19.724Z,3.73
2019-06-07T15:24:46.108Z,3.53
2019-06-07T15:27:12.156Z,3.67
2019-06-07T15:29:38.621Z,3.67
2019-06-07T15:32:05.330Z,3.73
2019-06-07T15:34:32.369Z,5.00
2019-06-07T15:36:59.596Z,4.40
2019-06-07T15:39:25.649Z,3.70
2019-06-07T15:41:51.732Z,3.97
2019-06-07T15:44:17.818Z,3.93
2019-06-07T15:46:44.231Z,3.13
2019-06-07T15:49:10.321Z,4.53
2019-06-07T15:51:36.870Z,4.20
2019-06-07T15:54:04.359Z,4.03
2019-06-07T15:56:30.532Z,3.83
2019-06-07T15:58:56.872Z,4.00
2019-06-07T16:01:22.959Z,4.17
2019-06-07T16:03:49.005Z,4.13
2019-06-07T16:06:15.096Z,4.40
2019-06-07T16:08:42.510Z,4.10
2019-06-07T16:11:09.131Z,4.17
2019-06-07T16:13:35.180Z,3.67
2019-06-07T16:16:01.309Z,3.57
2019-06-07T16:18:27.770Z,4.40
2019-06-07T16:20:54.566Z,3.90
2019-06-07T16:23:21.134Z,4.00
2019-06-07T16:25:47.425Z,4.10
2019-06-07T16:28:13.765Z,4.00
2019-06-07T16:30:40.626Z,4.03
2019-06-07T16:33:07.961Z,3.60
2019-06-07T16:35:34.929Z,4.37
2019-06-07T16:38:01.741Z,4.37
2019-06-07T16:40:27.789Z,4.30
2019-06-07T16:42:54.296Z,3.87
2019-06-07T16:45:21.695Z,4.40
2019-06-07T16:47:49.693Z,3.87
2019-06-07T16:50:17.564Z,3.90
2019-06-07T16:52:44.266Z,3.50
2019-06-07T16:55:13.551Z,3.33
2019-06-07T16:57:40.974Z,4.30
2019-06-07T17:00:09.839Z,4.03
2019-06-07T17:02:38.064Z,3.90
2019-06-07T17:05:09.824Z,3.70
2019-06-07T17:07:36.105Z,3.13
2019-06-07T17:10:04.752Z,3.63
2019-06-07T17:12:30.864Z,3.77
2019-06-07T17:14:57.004Z,3.40
2019-06-07T17:17:23.180Z,3.73
2019-06-07T17:19:49.366Z,3.53
2019-06-07T17:22:16.076Z,3.50
2019-06-07T17:24:43.293Z,3.77
2019-06-07T17:27:10.176Z,4.10
2019-06-07T17:29:36.598Z,4.00
2019-06-07T17:32:02.693Z,3.80
2019-06-07T17:34:28.744Z,3.70
2019-06-07T17:36:54.842Z,3.57
2019-06-07T17:39:20.928Z,3.50
2019-06-07T17:41:54.849Z,3.53
2019-06-07T17:44:15.615Z,3.83
2019-06-07T17:46:43.483Z,4.00
2019-06-07T17:49:10.292Z,3.60
2019-06-07T17:51:36.722Z,3.30
2019-06-07T17:54:04.086Z,4.03
2019-06-07T17:56:30.226Z,4.10
2019-06-07T17:58:56.740Z,3.67
2019-06-07T18:01:23.195Z,3.27
2019-06-07T18:03:49.508Z,4.17
2019-06-07T18:06:18.493Z,4.90
2019-06-07T18:08:45.646Z,4.10
2019-06-07T18:11:11.700Z,3.50
2019-06-07T18:13:37.788Z,4.00
2019-06-07T18:16:03.832Z,3.70
2019-06-07T18:18:29.964Z,3.60
2019-06-07T18:20:56.014Z,3.90
2019-06-07T18:23:22.391Z,3.10
2019-06-07T18:25:48.540Z,3.37
2019-06-07T18:28:16.129Z,3.60
2019-06-07T18:30:42.171Z,4.10
2019-06-07T18:33:08.949Z,3.30
2019-06-07T18:35:35.017Z,4.00
2019-06-07T18:38:01.544Z,3.93
2019-06-07T18:40:27.933Z,4.33
2019-06-07T18:42:55.273Z,4.90
2019-06-07T18:45:22.313Z,4.27
2019-06-07T18:47:49.445Z,3.93
2019-06-07T18:50:17.352Z,3.90
2019-06-07T18:52:46.679Z,3.93
2019-06-07T18:55:15.433Z,4.50
2019-06-07T18:57:41.896Z,4.73
2019-06-07T19:00:10.917Z,4.43
2019-06-07T19:02:38.706Z,3.83
2019-06-07T19:05:06.519Z,5.00
2019-06-07T19:07:32.672Z,4.47
2019-06-07T19:09:59.430Z,4.67
2019-06-07T19:12:26.192Z,4.57
2019-06-07T19:14:53.311Z,5.17
2019-06-07T19:17:19.980Z,4.40
2019-06-07T19:19:46.819Z,4.33
2019-06-07T19:22:13.563Z,6.20
2019-06-07T19:24:39.610Z,5.83
2019-06-07T19:27:06.065Z,6.10
2019-06-07T19:29:32.448Z,7.80
2019-06-07T19:31:59.085Z,7.30
2019-06-07T19:34:25.719Z,9.57
2019-06-07T19:36:51.823Z,12.27
2019-06-07T19:39:17.860Z,27.90
2019-06-07T19:41:43.947Z,16.83
2019-06-07T19:44:10.633Z,9.77
2019-06-07T19:46:36.691Z,10.27
2019-06-07T19:49:03.135Z,9.57
2019-06-07T19:51:29.564Z,8.23
2019-06-07T19:53:55.685Z,7.57
2019-06-07T19:56:21.732Z,7.50
2019-06-07T19:58:47.824Z,6.57
2019-06-07T20:01:13.871Z,5.40
2019-06-07T20:03:40.249Z,5.60
2019-06-07T20:06:06.356Z,5.53
2019-06-07T20:08:32.479Z,4.90
2019-06-07T20:10:58.586Z,4.23
2019-06-07T20:13:25.068Z,4.37
2019-06-07T20:15:51.488Z,3.73
2019-06-07T20:18:17.821Z,3.77
2019-06-07T20:20:45.812Z,3.03
2019-06-07T20:23:11.955Z,3.73
2019-06-07T20:25:38.941Z,3.20
2019-06-07T20:28:05.728Z,3.23
2019-06-07T20:30:31.884Z,3.17
2019-06-07T20:32:57.935Z,3.37
2019-06-07T20:35:23.980Z,3.13
2019-06-07T20:37:50.504Z,2.67
2019-06-07T20:40:24.141Z,2.17
2019-06-07T20:42:46.145Z,2.80
2019-06-07T20:45:13.895Z,2.10
2019-06-07T20:47:40.360Z,2.50
2019-06-07T20:50:09.055Z,1.63
2019-06-07T20:52:37.069Z,2.73
2019-06-07T20:55:07.015Z,2.40
2019-06-07T20:57:33.208Z,1.90
2019-06-07T21:00:00.755Z,1.70
2019-06-07T21:02:27.244Z,1.80
2019-06-07T21:04:53.579Z,1.63
2019-06-07T21:07:19.624Z,1.53
2019-06-07T21:09:46.416Z,1.73
2019-06-07T21:12:12.461Z,1.13
2019-06-07T21:14:38.766Z,1.17
2019-06-07T21:17:06.224Z,1.30
2019-06-07T21:19:32.949Z,1.50
2019-06-07T21:22:00.399Z,1.20
2019-06-07T21:24:26.884Z,1.13
2019-06-07T21:26:53.527Z,1.73
2019-06-07T21:29:20.024Z,1.20
2019-06-07T21:31:46.075Z,1.00
2019-06-07T21:34:14.129Z,0.90
2019-06-07T21:36:40.448Z,1.03
2019-06-07T21:39:08.318Z,1.30
2019-06-07T21:41:34.986Z,2.07
2019-06-07T21:44:02.401Z,1.30
2019-06-07T21:46:29.147Z,1.10
2019-06-07T21:48:55.192Z,1.03
2019-06-07T21:51:21.639Z,1.00
2019-06-07T21:53:48.033Z,0.80
2019-06-07T21:56:14.121Z,0.70
2019-06-07T21:58:40.168Z,0.70
2019-06-07T22:01:11.930Z,1.00
2019-06-07T22:03:38.217Z,0.63
2019-06-07T22:06:05.540Z,0.97
2019-06-07T22:08:32.178Z,0.90
2019-06-07T22:10:58.287Z,0.93
2019-06-07T22:13:25.120Z,0.70
2019-06-07T22:15:51.164Z,0.87
2019-06-07T22:18:17.256Z,0.70
2019-06-07T22:20:43.336Z,0.77
2019-06-07T22:23:10.610Z,0.67
2019-06-07T22:25:37.371Z,1.17
2019-06-07T22:28:03.571Z,1.00
2019-06-07T22:30:29.980Z,0.70
2019-06-07T22:32:56.376Z,0.70
2019-06-07T22:35:23.123Z,1.00
2019-06-07T22:37:49.204Z,0.80
2019-06-07T22:40:15.964Z,0.80
2019-06-07T22:42:42.022Z,0.80
2019-06-07T22:45:10.782Z,0.60
2019-06-07T22:47:37.122Z,0.90
2019-06-07T22:50:08.386Z,0.77
2019-06-07T22:52:35.531Z,0.70
2019-06-07T22:55:07.714Z,1.00
2019-06-07T22:57:52.968Z,0.70
2019-06-07T23:00:20.807Z,1.10
2019-06-07T23:02:47.355Z,1.47
2019-06-07T23:05:14.708Z,1.00
2019-06-07T23:07:41.660Z,0.80
2019-06-07T23:10:09.076Z,0.70
2019-06-07T23:12:35.596Z,0.90
2019-06-07T23:15:01.817Z,0.60
2019-06-07T23:17:28.380Z,0.80
2019-06-07T23:19:54.464Z,0.70
2019-06-07T23:22:20.548Z,1.33
2019-06-07T23:24:46.884Z,0.73
2019-06-07T23:27:14.355Z,0.80
2019-06-07T23:29:40.943Z,1.50
2019-06-07T23:32:06.999Z,1.10
2019-06-07T23:34:33.076Z,0.60
2019-06-07T23:36:59.125Z,0.90
2019-06-07T23:39:25.217Z,0.77
2019-06-07T23:41:51.301Z,0.70
2019-06-07T23:44:17.635Z,1.20
2019-06-07T23:46:43.960Z,0.90
2019-06-07T23:49:11.884Z,0.90
2019-06-07T23:51:38.396Z,1.00
2019-06-07T23:54:04.498Z,1.20
2019-06-07T23:56:30.812Z,0.80
2019-06-07T23:58:56.897Z,0.87
